Time;durP1;ratioP1;P1;durP2;ratioP2;P2;SDS_P1;SDS_P2;PMS_P1;PMS_P2;Temp;Humidity;BMP_temperature;BMP_pressure;BME280_temperature;BME280_humidity;BME280_pressure;Samples;Min_cycle;Max_cycle;Signal;HPM_P1;HPM_P2
2021/08/09 05:02:20;;;;;;;2.03;1.88;;;;;;;30.91;37.18;95010.75;5241553;23;20093;-76
2021/08/09 05:04:46;;;;;;;2.83;1.85;;;;;;;31.34;35.61;95020.06;4947567;28;20067;-76
2021/08/09 05:07:11;;;;;;;2.65;2.25;;;;;;;31.94;35.81;95022.59;4930096;29;20046;-76
2021/08/09 05:09:37;;;;;;;3.28;1.98;;;;;;;29.54;38.32;95031.59;4929052;29;20028;-76
2021/08/09 05:12:02;;;;;;;1.80;1.70;;;;;;;31.43;36.84;95034.38;4929213;29;20028;-76
2021/08/09 05:14:28;;;;;;;1.55;1.45;;;;;;;31.12;36.86;95034.19;4930191;29;20497;-76
2021/08/09 05:16:54;;;;;;;4.72;1.98;;;;;;;30.52;37.51;95035.25;4928074;29;20495;-76
2021/08/09 05:19:19;;;;;;;2.17;1.98;;;;;;;31.53;35.32;95033.41;4932954;29;20024;-75
2021/08/09 05:21:46;;;;;;;1.67;1.58;;;;;;;33.06;32.93;95037.53;4945535;28;20035;-75
2021/08/09 05:24:11;;;;;;;5.18;1.77;;;;;;;32.59;34.02;95023.72;4956990;28;20138;-75
2021/08/09 05:26:37;;;;;;;2.70;1.50;;;;;;;33.33;32.19;95034.66;4947249;28;20030;-75
2021/08/09 05:29:03;;;;;;;1.60;1.50;;;;;;;34.17;31.07;95031.66;4948441;28;20946;-76
2021/08/09 05:31:28;;;;;;;1.67;1.58;;;;;;;33.11;32.16;95040.09;4943106;28;20540;-76
2021/08/09 05:33:59;;;;;;;5.03;1.80;;;;;;;32.57;33.30;95033.19;4947654;28;20448;-76
2021/08/09 05:36:25;;;;;;;2.85;1.60;;;;;;;34.45;30.89;95048.28;4949908;28;20105;-76
2021/08/09 05:38:50;;;;;;;3.08;1.83;;;;;;;36.35;28.28;95044.38;4946684;28;20038;-76
2021/08/09 05:41:16;;;;;;;2.70;1.63;;;;;;;36.30;28.91;95044.59;4948779;28;20031;-76
2021/08/09 05:43:41;;;;;;;3.28;1.50;;;;;;;36.08;29.90;95045.75;4946752;29;20030;-76
2021/08/09 05:46:07;;;;;;;1.63;1.50;;;;;;;35.66;30.01;95042.19;4948344;28;20549;-76
2021/08/09 05:48:33;;;;;;;2.28;1.70;;;;;;;35.63;29.70;95048.25;4947058;28;20031;-75
2021/08/09 05:50:59;;;;;;;2.75;1.55;;;;;;;35.27;29.87;95053.31;4946776;28;20763;-75
2021/08/09 05:53:27;;;;;;;1.50;1.40;;;;;;;36.16;29.43;95054.88;4947307;28;20024;-76
2021/08/09 05:55:53;;;;;;;1.60;1.50;;;;;;;34.52;30.88;95056.66;4947808;28;20031;-75
2021/08/09 05:58:19;;;;;;;1.77;1.60;;;;;;;36.57;28.36;95046.78;4966871;28;20082;-75
2021/08/09 06:00:44;;;;;;;1.58;1.48;;;;;;;34.47;30.73;95044.16;4948854;29;20023;-75
2021/08/09 06:03:22;;;;;;;1.65;1.38;;;;;;;35.03;30.97;95034.22;4951827;29;20050;-75
2021/08/09 06:05:47;;;;;;;3.88;1.70;;;;;;;34.33;31.05;95038.94;4947738;28;20035;-75
2021/08/09 06:08:13;;;;;;;3.03;1.70;;;;;;;31.83;35.16;95043.44;4959146;28;20039;-76
2021/08/09 06:20:44;;;;;;;1.60;1.50;;;;;;;33.05;34.47;95050.16;4950441;28;20046;-75
2021/08/09 06:23:10;;;;;;;3.40;1.80;;;;;;;36.80;29.17;95047.16;4947738;28;20039;-75
2021/08/09 06:25:35;;;;;;;2.22;1.70;;;;;;;36.68;29.00;95055.22;4951780;28;20023;-75
2021/08/09 06:28:01;;;;;;;4.03;1.80;;;;;;;37.17;28.22;95045.34;4960404;28;20035;-75
2021/08/09 06:30:26;;;;;;;2.15;1.92;;;;;;;37.46;27.57;95037.84;4957483;28;20042;-75
2021/08/09 06:32:52;;;;;;;2.10;1.90;;;;;;;36.89;27.24;95040.53;4938156;28;20094;-76
2021/08/09 06:35:17;;;;;;;4.25;1.90;;;;;;;35.26;30.05;95033.66;4949047;29;20035;-76
2021/08/09 06:37:43;;;;;;;2.53;1.98;;;;;;;31.76;34.99;95035.03;4949964;28;20027;-77
2021/08/09 06:40:09;;;;;;;3.25;2.08;;;;;;;32.16;35.35;95036.84;4932962;29;20051;-76
2021/08/09 06:42:34;;;;;;;1.80;1.70;;;;;;;31.84;35.49;95029.75;4949699;29;20023;-76
2021/08/09 06:45:02;;;;;;;2.28;1.77;;;;;;;32.17;35.12;95034.94;4949658;28;20118;-76
2021/08/09 06:47:28;;;;;;;1.90;1.80;;;;;;;31.90;34.62;95033.13;4934584;28;20537;-75
2021/08/09 06:49:53;;;;;;;3.17;1.90;;;;;;;32.72;34.76;95032.81;4950585;29;20183;-75
2021/08/09 06:52:20;;;;;;;7.68;1.95;;;;;;;32.27;35.01;95035.47;4950824;28;20485;-75
2021/08/09 06:54:46;;;;;;;2.47;1.98;;;;;;;33.63;32.82;95033.81;4953217;28;20031;-75
2021/08/09 06:57:12;;;;;;;2.00;1.90;;;;;;;36.50;28.03;95016.78;4936003;28;20156;-75
2021/08/09 06:59:37;;;;;;;3.08;1.73;;;;;;;38.66;27.10;95024.34;4958770;28;20042;-74
2021/08/09 07:02:04;;;;;;;2.22;1.80;;;;;;;37.39;27.44;95031.38;4938764;28;20055;-75
2021/08/09 07:04:29;;;;;;;4.97;1.77;;;;;;;33.54;32.78;95037.56;4949481;28;20034;-75
2021/08/09 07:06:55;;;;;;;1.95;1.75;;;;;;;31.65;35.71;95036.34;4949522;28;20428;-75
2021/08/09 07:09:21;;;;;;;2.28;2.08;;;;;;;32.30;35.55;95036.78;4948227;29;20412;-75
2021/08/09 07:11:47;;;;;;;2.50;1.98;;;;;;;31.63;35.24;95039.31;4949433;28;20572;-75
2021/08/09 07:14:16;;;;;;;2.55;1.73;;;;;;;31.05;35.12;95041.03;4947905;28;20019;-75
2021/08/09 07:16:41;;;;;;;5.93;2.10;;;;;;;30.53;35.77;95036.84;4949120;28;20054;-75
2021/08/09 07:19:06;;;;;;;4.13;2.10;;;;;;;31.61;34.92;95046.09;4947815;29;20035;-75
2021/08/09 07:21:32;;;;;;;4.68;2.22;;;;;;;31.92;36.03;95038.94;4949668;28;20031;-75
2021/08/09 07:23:58;;;;;;;3.88;1.85;;;;;;;31.97;36.15;95038.84;4949128;28;20023;-75
2021/08/09 07:26:23;;;;;;;3.25;1.77;;;;;;;31.85;35.67;95036.69;4951077;28;20031;-75
2021/08/09 07:28:48;;;;;;;4.10;1.90;;;;;;;32.04;34.56;95033.09;4949909;29;20032;-74
2021/08/09 07:31:14;;;;;;;6.13;2.15;;;;;;;32.12;35.20;95035.84;4936306;28;20080;-75
2021/08/09 07:33:39;;;;;;;2.20;2.00;;;;;;;32.01;36.18;95029.13;4950670;29;20038;-75
2021/08/09 07:36:06;;;;;;;2.50;2.30;;;;;;;31.56;36.17;95038.16;4949221;29;20066;-75
2021/08/09 07:38:32;;;;;;;2.80;2.10;;;;;;;31.92;36.08;95030.16;4950194;28;20035;-75
2021/08/09 07:40:58;;;;;;;3.28;2.05;;;;;;;32.38;34.92;95036.03;4932110;29;20039;-75
2021/08/09 07:43:23;;;;;;;5.00;2.03;;;;;;;32.36;35.72;95032.88;4950180;29;20036;-75
2021/08/09 07:45:48;;;;;;;4.00;2.00;;;;;;;31.31;36.20;95023.34;4952526;28;20445;-75
2021/08/09 07:48:14;;;;;;;3.00;2.17;;;;;;;32.08;35.76;95039.44;4951364;28;20039;-76
2021/08/09 07:50:40;;;;;;;2.42;2.10;;;;;;;32.24;36.38;95049.50;4953731;29;20042;-76
2021/08/09 07:53:07;;;;;;;2.40;2.15;;;;;;;32.22;35.64;95034.81;4945196;29;20547;-75
2021/08/09 07:55:32;;;;;;;2.50;2.30;;;;;;;32.41;36.06;95048.84;4933442;29;20078;-75
2021/08/09 07:57:57;;;;;;;6.72;2.72;;;;;;;32.21;36.68;95043.94;4953746;28;20035;-75
2021/08/09 08:00:23;;;;;;;3.97;2.20;;;;;;;31.66;36.06;95044.06;4953439;28;20366;-76
2021/08/09 08:02:50;;;;;;;2.58;2.38;;;;;;;32.16;36.19;95046.75;4948491;29;20051;-75
2021/08/09 08:05:15;;;;;;;3.33;2.38;;;;;;;31.25;36.04;95037.94;4947203;29;20182;-75
2021/08/09 08:07:41;;;;;;;3.72;2.55;;;;;;;31.45;36.49;95036.75;4932684;29;20114;-74
2021/08/09 08:10:07;;;;;;;2.45;2.25;;;;;;;31.73;35.10;95038.31;4947789;29;20389;-75
2021/08/09 08:12:32;;;;;;;5.03;2.53;;;;;;;31.65;35.59;95039.03;4949671;29;20024;-75
2021/08/09 08:14:58;;;;;;;3.47;2.50;;;;;;;32.66;34.99;95045.53;4930544;29;20472;-75
2021/08/09 08:17:23;;;;;;;7.18;2.50;;;;;;;33.23;34.69;95048.38;4932426;29;20425;-75
2021/08/09 08:19:50;;;;;;;8.35;2.70;;;;;;;32.06;35.28;95047.00;4946191;28;20039;-75
2021/08/09 08:22:17;;;;;;;3.42;2.20;;;;;;;32.78;32.88;95040.41;4947035;28;20087;-75
2021/08/09 08:24:42;;;;;;;2.72;2.53;;;;;;;32.64;34.78;95045.06;4946162;28;20079;-75
2021/08/09 08:27:08;;;;;;;3.08;2.63;;;;;;;33.72;33.19;95039.19;4942767;28;20061;-75
2021/08/09 08:29:33;;;;;;;3.35;2.47;;;;;;;32.00;35.72;95032.09;4948635;29;20046;-75
2021/08/09 08:31:59;;;;;;;6.32;2.60;;;;;;;33.16;35.13;95043.47;4928815;29;20043;-75
2021/08/09 08:34:24;;;;;;;4.88;2.90;;;;;;;33.37;33.75;95039.09;4949079;29;20095;-75
2021/08/09 08:36:50;;;;;;;3.03;2.70;;;;;;;33.01;33.81;95051.88;4946536;29;20031;-74
2021/08/09 08:39:16;;;;;;;4.95;2.70;;;;;;;32.62;34.38;95046.47;4946276;28;20043;-74
2021/08/09 08:41:44;;;;;;;2.72;2.53;;;;;;;33.00;33.59;95046.84;4946657;28;20030;-75
2021/08/09 08:44:10;;;;;;;3.08;2.88;;;;;;;33.78;31.92;95037.94;4950997;28;20413;-75
2021/08/09 08:46:41;;;;;;;3.33;2.25;;;;;;;33.08;33.65;95035.31;4950013;28;20027;-75
2021/08/09 08:49:13;;;;;;;3.20;2.95;;;;;;;33.35;33.65;95045.91;4936231;28;20031;-74
2021/08/09 08:51:40;;;;;;;4.30;3.03;;;;;;;33.15;33.32;95043.75;4918060;28;20472;-79
2021/08/09 08:54:06;;;;;;;5.72;2.92;;;;;;;32.92;33.17;95040.31;4913178;28;20031;-78
2021/08/09 08:56:31;;;;;;;3.00;2.80;;;;;;;33.37;32.58;95046.38;4931540;28;20041;-79
2021/08/09 08:58:57;;;;;;;3.80;3.17;;;;;;;33.77;33.52;95045.22;4947690;28;20165;-79
2021/08/09 09:01:45;;;;;;;5.88;3.05;;;;;;;33.88;32.89;95021.50;4930908;29;20054;-78
2021/08/09 09:04:27;;;;;;;4.57;3.35;;;;;;;33.68;32.22;95036.34;4932449;29;20031;-80
2021/08/09 09:06:59;;;;;;;4.78;2.92;;;;;;;33.57;31.81;95043.09;4930282;28;20047;-79
2021/08/09 09:09:25;;;;;;;4.07;3.33;;;;;;;33.79;32.16;95050.28;4932543;29;20024;-78
2021/08/09 09:11:50;;;;;;;4.18;3.53;;;;;;;33.98;32.28;95031.16;4947586;29;20055;-78
2021/08/09 09:14:30;;;;;;;5.00;3.20;;;;;;;34.21;32.96;95035.31;4931469;29;20031;-79
2021/08/09 09:16:55;;;;;;;3.45;3.10;;;;;;;34.06;32.33;95041.13;4916110;29;20031;-78
2021/08/09 09:19:41;;;;;;;4.88;4.32;;;;;;;33.78;32.10;95030.66;4946928;29;20035;-78
2021/08/09 09:22:20;;;;;;;4.63;4.20;;;;;;;33.86;32.06;95035.28;4934045;28;20046;-77
2021/08/09 09:24:52;;;;;;;;;;;;;;;33.74;32.79;95037.00;4945280;29;20099;-78
2021/08/09 09:27:30;;;;;;;5.57;3.67;;;;;;;33.90;32.82;95030.84;4939322;28;19924;-81
2021/08/09 09:29:56;;;;;;;;;;;;;;;34.38;33.46;95040.69;4934832;28;20413;-78
2021/08/09 09:32:22;;;;;;;5.10;3.72;;;;;;;33.78;32.46;95032.56;4934716;29;19925;-79
2021/08/09 09:34:57;;;;;;;6.80;3.90;;;;;;;34.55;32.58;95040.63;4952087;29;20034;-80
2021/08/09 09:37:27;;;;;;;5.93;4.22;;;;;;;34.73;31.71;95030.66;4953066;28;20439;-79
2021/08/09 09:39:53;;;;;;;6.15;4.35;;;;;;;34.42;31.15;95028.94;4957392;28;20034;-78
2021/08/09 09:42:19;;;;;;;4.35;3.95;;;;;;;34.20;31.82;95025.63;4935809;29;20521;-79
2021/08/09 09:44:44;;;;;;;6.22;4.25;;;;;;;34.64;31.48;95025.31;4932624;29;20020;-77
2021/08/09 09:47:19;;;;;;;6.57;4.03;;;;;;;34.43;31.93;95035.13;4938482;28;20031;-78
2021/08/09 09:49:45;;;;;;;7.10;4.43;;;;;;;34.59;31.40;95014.66;4948068;28;20019;-78
2021/08/09 09:52:36;;;;;;;7.97;4.50;;;;;;;34.35;30.79;95023.28;4958272;28;20023;-77
2021/08/09 09:55:05;;;;;;;7.97;4.28;;;;;;;34.28;31.24;95000.63;4947091;28;20382;-77
2021/08/09 09:57:30;;;;;;;7.28;4.63;;;;;;;34.74;30.41;95014.16;4952697;28;20062;-78
2021/08/09 09:59:57;;;;;;;4.40;3.95;;;;;;;34.41;31.43;94999.66;4948574;28;20031;-78
2021/08/09 10:02:23;;;;;;;5.18;4.40;;;;;;;34.57;30.50;95016.09;4921403;28;20406;-78
2021/08/09 10:04:50;;;;;;;6.70;4.80;;;;;;;34.38;31.67;95017.25;4954165;28;20095;-79
2021/08/09 10:07:16;;;;;;;9.23;4.13;;;;;;;34.47;31.54;94995.69;4952393;28;20031;-78
2021/08/09 10:09:41;;;;;;;7.22;4.60;;;;;;;34.83;32.41;94981.84;4917042;28;20042;-79
2021/08/09 10:12:07;;;;;;;5.18;4.50;;;;;;;35.03;31.85;94997.28;4920568;29;20038;-77
2021/08/09 10:14:32;;;;;;;9.00;4.90;;;;;;;34.60;29.90;94988.53;4938947;29;20097;-75
2021/08/09 10:16:58;;;;;;;5.80;4.35;;;;;;;34.78;31.39;94990.06;4920689;29;20517;-75
2021/08/09 10:19:23;;;;;;;4.75;4.18;;;;;;;34.55;30.52;94981.41;4949774;29;20433;-75
2021/08/09 10:21:49;;;;;;;5.18;4.68;;;;;;;35.22;31.19;94991.53;4951093;29;20081;-75
2021/08/09 10:24:41;;;;;;;7.32;4.68;;;;;;;34.96;30.55;94986.22;4918052;29;20019;-76
2021/08/09 10:27:07;;;;;;;5.43;4.90;;;;;;;35.20;29.65;94980.25;4931932;29;20118;-76
2021/08/09 10:29:32;;;;;;;5.60;4.93;;;;;;;35.27;30.04;94986.72;4932027;29;20484;-75
2021/08/09 10:32:18;;;;;;;5.07;4.68;;;;;;;34.68;29.65;94985.84;4949634;28;20019;-76
2021/08/09 10:34:43;;;;;;;4.75;4.35;;;;;;;34.84;29.01;94986.09;4951405;29;20035;-76
2021/08/09 10:37:13;;;;;;;4.75;4.38;;;;;;;34.82;29.66;94977.56;4941243;28;20046;-76
2021/08/09 10:39:54;;;;;;;8.32;5.30;;;;;;;35.27;30.27;94983.25;4969965;28;20581;-76
2021/08/09 10:42:36;;;;;;;6.93;4.78;;;;;;;34.41;28.94;94987.00;4945174;28;20551;-75
2021/08/09 10:45:25;;;;;;;4.72;4.30;;;;;;;35.36;29.27;94986.66;4950046;29;20034;-76
2021/08/09 10:47:58;;;;;;;4.75;4.20;;;;;;;35.39;29.23;94983.31;4951455;28;20039;-76
2021/08/09 10:50:26;;;;;;;4.63;4.22;;;;;;;34.77;29.45;94983.13;4958579;28;20042;-75
2021/08/09 10:52:55;;;;;;;;;;;;;;;35.12;28.67;94975.72;4935884;29;20488;-75
2021/08/09 10:55:29;;;;;;;5.68;4.97;;;;;;;35.45;29.68;94980.09;4951692;28;19999;-76
2021/08/09 10:57:55;;;;;;;6.50;4.55;;;;;;;35.43;30.66;94968.09;4950095;29;20144;-75
2021/08/09 11:00:39;;;;;;;5.95;4.57;;;;;;;35.07;29.61;94976.66;4926938;28;20035;-78
2021/08/09 11:03:05;;;;;;;5.72;4.18;;;;;;;35.35;29.00;94971.63;4929992;29;20031;-76
2021/08/09 11:05:30;;;;;;;6.25;4.75;;;;;;;34.65;29.52;94956.88;4921813;29;20552;-80
2021/08/09 11:08:20;;;;;;;5.45;5.03;;;;;;;35.48;28.73;94967.91;4926196;29;20031;-75
2021/08/09 11:10:55;;;;;;;9.38;4.93;;;;;;;35.82;30.26;94964.19;4929148;29;20032;-76
2021/08/09 11:13:21;;;;;;;5.10;4.60;;;;;;;35.53;28.77;94948.81;4928453;29;20508;-78
2021/08/09 11:15:54;;;;;;;4.70;4.30;;;;;;;35.19;29.64;94962.53;4911090;29;20131;-77
2021/08/09 11:18:19;;;;;;;4.60;4.20;;;;;;;35.81;30.44;94957.19;4913937;29;20028;-78
2021/08/09 11:20:45;;;;;;;5.20;4.80;;;;;;;34.97;28.67;94957.38;4928923;29;20769;-78
2021/08/09 11:23:12;;;;;;;5.95;4.28;;;;;;;35.80;29.68;94961.03;4930373;29;20028;-79
2021/08/09 11:25:48;;;;;;;6.10;4.97;;;;;;;35.60;28.33;94959.91;4928716;29;20038;-77
2021/08/09 11:28:22;;;;;;;4.88;4.38;;;;;;;35.57;29.23;94952.44;4909830;29;20036;-78
2021/08/09 11:30:48;;;;;;;5.43;4.93;;;;;;;35.60;28.98;94949.13;4911095;29;20027;-77
2021/08/09 11:33:35;;;;;;;6.30;5.80;;;;;;;35.90;28.71;94955.22;4925797;29;20035;-77
2021/08/09 11:36:07;;;;;;;5.10;4.55;;;;;;;36.21;28.09;94955.63;4915208;29;20111;-80
2021/08/09 11:38:55;;;;;;;7.60;4.57;;;;;;;35.67;28.74;94949.41;4924074;29;20031;-79
2021/08/09 11:41:24;;;;;;;5.25;4.75;;;;;;;36.00;28.89;94956.72;4913455;29;20439;-79
2021/08/09 11:43:51;;;;;;;6.68;4.78;;;;;;;35.37;28.91;94928.97;4927337;29;20032;-77
2021/08/09 11:46:18;;;;;;;7.40;5.03;;;;;;;35.01;28.89;94942.13;4916633;29;20032;-77
2021/08/09 11:48:46;;;;;;;6.72;4.80;;;;;;;35.37;28.43;94947.81;4909791;29;20044;-77
2021/08/09 11:51:28;;;;;;;10.82;5.40;;;;;;;35.88;29.26;94942.06;4908523;29;20090;-78
2021/08/09 11:53:54;;;;;;;5.72;5.10;;;;;;;36.24;28.64;94937.97;4911659;29;20028;-78
2021/08/09 11:56:24;;;;;;;8.82;5.03;;;;;;;35.69;27.84;94940.97;4911330;29;20433;-77
2021/08/09 11:58:50;;;;;;;6.45;5.68;;;;;;;35.48;28.67;94921.28;4926240;29;20059;-79
2021/08/09 12:01:36;;;;;;;6.15;5.55;;;;;;;36.15;28.07;94908.38;4913679;28;20074;-78
2021/08/09 12:04:08;;;;;;;8.02;5.32;;;;;;;36.10;28.50;94934.75;4929891;28;20089;-76
2021/08/09 12:06:57;;;;;;;5.45;4.95;;;;;;;36.02;27.65;94922.13;4947213;28;20041;-77
2021/08/09 12:09:37;;;;;;;5.97;5.10;;;;;;;35.71;28.63;94936.00;4946121;29;20083;-77
2021/08/09 12:12:04;;;;;;;7.97;5.15;;;;;;;36.07;28.44;94927.31;4928609;29;20032;-77
2021/08/09 12:14:33;;;;;;;6.35;5.32;;;;;;;35.97;28.31;94923.91;4944181;29;20081;-77
2021/08/09 12:16:59;;;;;;;9.32;5.45;;;;;;;36.25;28.35;94926.06;4945501;29;20027;-76
2021/08/09 12:19:41;;;;;;;8.38;5.07;;;;;;;35.84;27.73;94914.16;4948248;29;20058;-76
2021/08/09 12:22:10;;;;;;;6.80;4.88;;;;;;;35.87;27.93;94920.81;4946935;28;20043;-75
2021/08/09 12:24:35;;;;;;;;;;;;;;;35.72;27.53;94919.53;4948129;29;20051;-77
2021/08/09 12:27:22;;;;;;;7.40;5.10;;;;;;;36.51;27.96;94917.66;4947654;29;19978;-75
2021/08/09 12:30:10;;;;;;;5.97;4.90;;;;;;;36.46;27.12;94911.34;4922569;29;20069;-78
2021/08/09 12:32:39;;;;;;;;;;;;;;;36.36;27.11;94916.38;4945058;29;20512;-78
2021/08/09 12:35:06;;;;;;;8.50;5.40;;;;;;;36.13;27.90;94902.50;4944869;29;20025;-78
2021/08/09 12:37:33;;;;;;;8.82;4.88;;;;;;;35.84;27.35;94903.38;4946040;29;20031;-76
2021/08/09 12:40:13;;;;;;;5.70;5.20;;;;;;;36.24;26.70;94894.78;4948626;28;20035;-78
2021/08/09 12:42:39;;;;;;;5.38;4.72;;;;;;;35.92;27.33;94888.25;4945414;28;20035;-77
2021/08/09 12:45:05;;;;;;;7.43;4.93;;;;;;;36.69;27.39;94895.53;4930990;28;20019;-79
2021/08/09 12:47:31;;;;;;;13.88;4.90;;;;;;;36.21;26.91;94888.13;4953517;28;20023;-77
2021/08/09 12:49:57;;;;;;;6.88;4.00;;;;;;;36.57;26.80;94876.63;4951578;28;20031;-79
2021/08/09 12:52:22;;;;;;;7.20;4.70;;;;;;;36.47;27.20;94890.53;4946470;28;20023;-84
2021/08/09 12:54:48;;;;;;;6.53;4.85;;;;;;;36.51;27.31;94890.66;4914015;29;20028;-83
2021/08/09 12:57:13;;;;;;;6.75;4.35;;;;;;;36.61;26.92;94885.63;4929397;29;20038;-82
2021/08/09 12:59:38;;;;;;;7.90;3.95;;;;;;;36.55;26.89;94884.25;4944672;29;20063;-82
2021/08/09 13:02:04;;;;;;;4.32;3.83;;;;;;;36.92;26.25;94875.06;4945034;29;20051;-82
2021/08/09 13:04:30;;;;;;;4.97;4.57;;;;;;;36.91;26.68;94884.28;4928022;29;20034;-85
2021/08/09 13:06:57;;;;;;;6.35;4.07;;;;;;;37.20;27.03;94883.25;4943400;29;20106;-81
2021/08/09 13:09:22;;;;;;;9.00;4.50;;;;;;;36.72;27.02;94875.16;4944168;28;20086;-81
2021/08/09 13:11:48;;;;;;;6.47;4.43;;;;;;;36.77;27.91;94880.31;4920650;29;20020;-81
2021/08/09 13:14:13;;;;;;;4.82;4.18;;;;;;;37.24;26.82;94872.56;4945456;29;20023;-82
2021/08/09 13:16:39;;;;;;;5.28;4.30;;;;;;;36.98;27.25;94892.63;4946649;29;20469;-81
2021/08/09 13:19:04;;;;;;;7.25;4.80;;;;;;;36.78;26.67;94890.03;4949905;28;20080;-80
2021/08/09 13:21:30;;;;;;;7.13;4.68;;;;;;;36.17;27.91;94889.91;4942843;28;20043;-80
2021/08/09 13:23:56;;;;;;;5.93;4.40;;;;;;;35.52;29.34;94876.34;4940760;28;20024;-82
2021/08/09 13:26:21;;;;;;;7.65;4.35;;;;;;;35.43;28.96;94873.72;4942342;28;20082;-82
2021/08/09 13:28:47;;;;;;;6.32;4.60;;;;;;;35.85;29.06;94872.59;4949885;28;20031;-81
2021/08/09 13:31:12;;;;;;;7.35;4.82;;;;;;;35.44;28.69;94875.31;4943379;28;20038;-82
2021/08/09 13:33:38;;;;;;;5.15;4.65;;;;;;;35.66;29.03;94876.91;4945408;28;20593;-81
2021/08/09 13:36:03;;;;;;;5.40;4.70;;;;;;;35.73;28.62;94877.16;4932495;29;20035;-84
2021/08/09 13:38:31;;;;;;;5.90;4.35;;;;;;;35.87;29.02;94856.06;4946729;28;20031;-82
2021/08/09 13:40:56;;;;;;;4.97;3.95;;;;;;;36.46;28.67;94876.25;4947410;29;20031;-82
2021/08/09 13:43:22;;;;;;;8.43;4.78;;;;;;;35.98;28.61;94881.50;4944296;29;20414;-84
2021/08/09 13:45:48;;;;;;;5.28;4.78;;;;;;;35.56;29.14;94886.16;4947565;29;20027;-77
2021/08/09 13:48:13;;;;;;;5.78;5.22;;;;;;;35.80;29.05;94882.81;4957046;28;20480;-79
2021/08/09 13:50:39;;;;;;;5.20;4.78;;;;;;;36.01;28.69;94880.84;4934413;29;20039;-79
2021/08/09 13:53:05;;;;;;;6.05;4.28;;;;;;;35.54;28.37;94884.91;4946037;29;20035;-80
2021/08/09 13:55:30;;;;;;;5.55;4.05;;;;;;;35.96;28.37;94879.13;4929818;29;20463;-81
2021/08/09 13:57:55;;;;;;;11.40;4.57;;;;;;;36.05;28.06;94881.75;4913453;29;20507;-78
2021/08/09 14:00:21;;;;;;;4.88;3.92;;;;;;;35.76;28.24;94885.38;4945568;28;20027;-84
2021/08/09 14:02:46;;;;;;;7.18;4.35;;;;;;;35.73;29.10;94879.84;4961972;28;20043;-82
2021/08/09 14:05:12;;;;;;;4.32;3.95;;;;;;;35.07;29.15;94849.22;4926577;29;20485;-83
2021/08/09 14:07:38;;;;;;;5.50;4.32;;;;;;;35.06;29.72;94888.88;4946044;29;20027;-81
2021/08/09 14:10:05;;;;;;;4.65;4.25;;;;;;;34.65;29.84;94884.16;4945618;29;20035;-80
2021/08/09 14:12:30;;;;;;;6.28;4.07;;;;;;;34.41;29.84;94863.19;4945416;29;20027;-78
2021/08/09 14:14:56;;;;;;;5.47;4.50;;;;;;;34.53;29.85;94889.41;4929415;29;20024;-77
2021/08/09 14:17:21;;;;;;;7.82;4.85;;;;;;;34.18;29.93;94869.13;4947679;28;20019;-81
2021/08/09 14:19:47;;;;;;;5.85;4.03;;;;;;;34.49;30.09;94874.22;4916992;29;20094;-82
2021/08/09 14:22:12;;;;;;;4.88;4.35;;;;;;;34.29;29.77;94868.44;4914403;29;20036;-81
2021/08/09 14:24:38;;;;;;;9.90;5.20;;;;;;;34.06;30.22;94885.13;4949168;29;20575;-81
2021/08/09 14:27:04;;;;;;;4.97;4.20;;;;;;;33.78;30.72;94890.06;4945609;29;20480;-77
2021/08/09 14:29:31;;;;;;;5.22;4.28;;;;;;;33.22;30.71;94893.69;4949534;29;20027;-78
2021/08/09 14:31:56;;;;;;;4.95;4.53;;;;;;;33.02;31.53;94900.41;4950151;28;20035;-76
2021/08/09 14:34:22;;;;;;;4.90;4.40;;;;;;;33.70;30.60;94894.34;4959644;28;20548;-80
2021/08/09 14:36:47;;;;;;;4.55;4.15;;;;;;;33.73;30.34;94888.34;4969443;28;20034;-81
2021/08/09 14:39:12;;;;;;;4.40;4.10;;;;;;;33.76;30.83;94885.00;4961064;28;20038;-81
2021/08/09 14:41:38;;;;;;;4.70;4.18;;;;;;;33.86;30.17;94891.97;4948147;28;20031;-81
2021/08/09 14:44:03;;;;;;;4.07;3.70;;;;;;;33.79;30.65;94887.06;4947809;29;20539;-79
2021/08/09 14:46:29;;;;;;;5.22;4.22;;;;;;;33.82;30.58;94897.19;4950858;28;20031;-81
2021/08/09 14:48:54;;;;;;;5.72;3.88;;;;;;;33.92;30.87;94891.47;4948034;29;20035;-81
2021/08/09 14:51:20;;;;;;;5.57;4.32;;;;;;;33.88;30.87;94898.59;4945055;28;20031;-83
2021/08/09 14:53:45;;;;;;;5.30;3.80;;;;;;;33.72;30.45;94892.13;4931302;29;20032;-82
2021/08/09 14:56:11;;;;;;;6.18;4.07;;;;;;;33.66;29.92;94901.47;4947272;29;20023;-80
2021/08/09 14:58:36;;;;;;;6.28;4.05;;;;;;;33.82;30.35;94899.06;4950230;29;20023;-79
2021/08/09 15:01:02;;;;;;;5.53;4.22;;;;;;;33.80;30.59;94899.41;4947422;29;20055;-79
2021/08/09 15:03:27;;;;;;;6.63;4.55;;;;;;;33.65;30.25;94894.50;4931815;28;20023;-79
2021/08/09 15:05:53;;;;;;;4.97;4.22;;;;;;;33.65;30.42;94893.72;4948158;29;20043;-78
2021/08/09 15:08:18;;;;;;;4.22;3.83;;;;;;;33.73;30.51;94904.47;4949800;29;20417;-78
2021/08/09 15:10:44;;;;;;;4.63;4.22;;;;;;;33.74;30.42;94891.81;4946990;29;20762;-77
2021/08/09 15:13:09;;;;;;;4.25;3.85;;;;;;;33.64;31.11;94892.94;4947692;29;20029;-77
2021/08/09 15:15:36;;;;;;;5.38;4.80;;;;;;;33.51;30.65;94891.16;4949267;29;20461;-76
2021/08/09 15:18:01;;;;;;;5.82;4.53;;;;;;;33.58;30.36;94875.34;4933437;29;20023;-78
2021/08/09 15:20:27;;;;;;;6.15;4.43;;;;;;;33.66;30.83;94877.25;4965185;28;20057;-77
2021/08/09 15:22:52;;;;;;;4.80;4.30;;;;;;;33.32;30.01;94885.31;4958603;28;20114;-78
2021/08/09 15:25:18;;;;;;;7.47;4.97;;;;;;;33.42;30.23;94879.63;4931772;29;20035;-78
2021/08/09 15:27:43;;;;;;;5.07;4.57;;;;;;;33.50;30.37;94888.78;4942687;28;20035;-78
2021/08/09 15:30:09;;;;;;;7.68;4.40;;;;;;;33.40;30.66;94869.19;4958762;28;20106;-77
2021/08/09 15:32:35;;;;;;;6.72;4.65;;;;;;;33.31;31.13;94878.34;4930617;29;20032;-79
2021/08/09 15:35:01;;;;;;;5.75;4.30;;;;;;;33.32;31.02;94882.63;4958839;28;20026;-80
2021/08/09 15:37:27;;;;;;;5.45;4.95;;;;;;;33.16;30.79;94876.13;4965404;28;20074;-77
2021/08/09 15:39:52;;;;;;;12.80;4.30;;;;;;;33.13;31.40;94888.31;4946871;28;20101;-78
2021/08/09 15:42:17;;;;;;;6.22;4.22;;;;;;;33.18;31.51;94887.34;4968049;28;20030;-78
2021/08/09 15:44:43;;;;;;;5.65;4.20;;;;;;;33.13;30.88;94882.94;4964773;28;20031;-78
2021/08/09 15:47:08;;;;;;;5.50;4.60;;;;;;;33.01;31.49;94879.25;4955841;28;20451;-79
2021/08/09 15:49:34;;;;;;;4.70;4.20;;;;;;;33.01;31.19;94879.25;4949069;28;20053;-78
2021/08/09 15:51:59;;;;;;;8.82;4.28;;;;;;;32.81;30.81;94870.69;4950480;28;20556;-77
2021/08/09 15:54:25;;;;;;;6.45;4.05;;;;;;;32.91;32.03;94874.97;4949750;28;20466;-79
2021/08/09 15:56:54;;;;;;;6.35;4.45;;;;;;;32.79;31.21;94878.25;4961376;28;20027;-77
2021/08/09 15:59:19;;;;;;;;;;;;;;;32.82;32.09;94888.34;4948855;29;20061;-77
2021/08/09 16:01:45;;;;;;;5.25;4.35;;;;;;;32.76;31.91;94876.19;4944051;28;19954;-77
2021/08/09 16:04:10;;;;;;;5.25;4.75;;;;;;;32.70;32.30;94890.06;4951198;28;20053;-78
2021/08/09 16:06:36;;;;;;;5.05;4.55;;;;;;;32.42;32.73;94873.34;4947744;28;20038;-77
2021/08/09 16:09:01;;;;;;;5.00;4.50;;;;;;;32.41;32.50;94879.81;4933709;29;20034;-79
2021/08/09 16:11:27;;;;;;;7.10;5.15;;;;;;;32.39;32.78;94890.06;4913761;29;20095;-78
2021/08/09 16:13:52;;;;;;;5.82;4.35;;;;;;;32.14;32.76;94874.66;4947637;29;20061;-79
2021/08/09 16:16:18;;;;;;;7.38;4.43;;;;;;;32.07;32.93;94887.72;4936888;29;20035;-78
2021/08/09 16:18:44;;;;;;;5.22;4.32;;;;;;;32.02;33.22;94887.78;4945736;28;20454;-78
2021/08/09 16:21:09;;;;;;;5.07;4.57;;;;;;;31.85;33.68;94896.53;4927988;29;20043;-78
2021/08/09 16:23:38;;;;;;;8.77;4.47;;;;;;;31.91;34.05;94892.63;4944950;28;20524;-78
2021/08/09 16:26:04;;;;;;;4.80;4.40;;;;;;;31.79;33.46;94877.09;4948323;28;20383;-79
2021/08/09 16:28:29;;;;;;;5.10;3.90;;;;;;;31.92;33.52;94890.75;4945175;29;20106;-78
2021/08/09 16:30:56;;;;;;;8.73;4.43;;;;;;;31.77;33.74;94889.22;4946692;29;20030;-78
2021/08/09 16:33:22;;;;;;;5.47;4.05;;;;;;;31.55;34.57;94875.81;4947851;29;20034;-78
2021/08/09 16:35:47;;;;;;;5.22;4.40;;;;;;;31.55;35.09;94899.94;4929302;29;20470;-79
2021/08/09 16:38:13;;;;;;;4.72;4.25;;;;;;;31.31;35.03;94903.63;4948223;29;20031;-79
2021/08/09 16:40:39;;;;;;;8.38;4.57;;;;;;;31.30;35.17;94895.91;4928035;29;20404;-78
2021/08/09 16:43:04;;;;;;;5.90;4.00;;;;;;;31.15;35.62;94901.59;4948460;29;20042;-79
2021/08/09 16:45:32;;;;;;;6.93;4.70;;;;;;;31.09;36.29;94903.59;4927242;29;20599;-79
2021/08/09 16:47:57;;;;;;;5.88;4.28;;;;;;;30.85;36.84;94905.69;4950118;28;20456;-78